createdAt,value
2019-03-05T00:00:31.080Z,112.80
2019-03-05T00:03:00.529Z,110.97
2019-03-05T00:05:30.003Z,112.60
2019-03-05T00:07:59.377Z,115.13
2019-03-05T00:10:28.798Z,131.33
2019-03-05T00:12:58.202Z,132.93
2019-03-05T00:15:27.944Z,143.67
2019-03-05T00:17:57.683Z,159.57
2019-03-05T00:20:27.088Z,182.13
2019-03-05T00:22:56.546Z,176.83
2019-03-05T00:25:26.141Z,140.43
2019-03-05T00:28:24.197Z,144.63
2019-03-05T00:31:18.079Z,140.17
2019-03-05T00:34:28.005Z,123.93
2019-03-05T00:37:28.608Z,112.60
2019-03-05T00:40:37.016Z,108.80
2019-03-05T00:43:36.800Z,104.40
2019-03-05T00:46:28.003Z,99.43
2019-03-05T00:49:38.063Z,103.83
2019-03-05T00:52:28.600Z,102.63
2019-03-05T00:55:36.191Z,107.60
2019-03-05T00:58:30.114Z,106.30
2019-03-05T01:01:30.869Z,97.63
2019-03-05T01:04:35.813Z,102.57
2019-03-05T01:07:04.760Z,99.33
2019-03-05T01:09:33.504Z,97.83
2019-03-05T01:12:02.299Z,92.03
2019-03-05T01:14:32.287Z,93.67
2019-03-05T01:17:01.110Z,88.60
2019-03-05T01:19:29.850Z,91.30
2019-03-05T01:21:58.585Z,93.47
2019-03-05T01:24:27.285Z,93.23
2019-03-05T01:26:56.219Z,93.53
2019-03-05T01:29:25.197Z,92.00
2019-03-05T01:32:15.443Z,87.47
2019-03-05T01:35:09.118Z,82.00
2019-03-05T01:37:37.942Z,84.67
2019-03-05T01:40:43.989Z,81.87
2019-03-05T01:43:12.732Z,84.33
2019-03-05T01:45:41.666Z,82.93
2019-03-05T01:48:11.682Z,85.30
2019-03-05T01:50:40.404Z,87.40
2019-03-05T01:53:09.122Z,76.97
2019-03-05T01:55:37.945Z,70.27
2019-03-05T01:58:06.707Z,73.13
2019-03-05T02:00:35.727Z,134.17
2019-03-05T02:03:04.563Z,143.77
2019-03-05T02:05:34.071Z,138.53
2019-03-05T02:08:03.500Z,137.23
2019-03-05T02:10:32.897Z,142.80
2019-03-05T02:13:01.683Z,174.57
2019-03-05T02:15:30.464Z,125.27
2019-03-05T02:17:59.688Z,163.73
2019-03-05T02:20:28.454Z,140.00
2019-03-05T02:23:05.469Z,189.63
2019-03-05T02:25:42.945Z,264.73
2019-03-05T02:28:33.839Z,242.17
2019-03-05T02:31:28.368Z,201.57
2019-03-05T02:34:15.811Z,258.97
2019-03-05T02:37:03.649Z,260.77
2019-03-05T02:39:54.653Z,171.23
2019-03-05T02:42:54.729Z,172.97
2019-03-05T02:45:33.522Z,168.50
2019-03-05T02:48:24.635Z,220.80
2019-03-05T02:51:22.443Z,160.37
2019-03-05T02:54:08.009Z,191.43
2019-03-05T02:56:39.448Z,153.53
2019-03-05T02:59:07.405Z,166.00
2019-03-05T03:01:55.188Z,173.73
2019-03-05T03:04:26.342Z,133.73
2019-03-05T03:06:55.081Z,145.93
2019-03-05T03:09:43.178Z,113.23
2019-03-05T03:12:12.033Z,110.23
2019-03-05T03:14:40.854Z,121.80
2019-03-05T03:17:09.733Z,121.97
2019-03-05T03:19:38.549Z,123.83
2019-03-05T03:22:07.368Z,126.70
2019-03-05T03:24:36.129Z,125.37
2019-03-05T03:27:04.954Z,130.57
2019-03-05T03:29:33.685Z,146.03
2019-03-05T03:32:02.984Z,133.30
2019-03-05T03:34:31.851Z,144.93
2019-03-05T03:37:01.831Z,136.20
2019-03-05T03:39:30.821Z,169.23
2019-03-05T03:41:59.632Z,203.90
2019-03-05T03:44:28.523Z,193.67
2019-03-05T03:46:57.380Z,207.50
2019-03-05T03:49:26.223Z,161.10
2019-03-05T03:51:54.942Z,174.60
2019-03-05T03:54:23.991Z,174.13
2019-03-05T03:56:52.764Z,179.23
2019-03-05T03:59:21.600Z,167.17
2019-03-05T04:01:50.449Z,187.33
2019-03-05T04:04:19.263Z,183.43
2019-03-05T04:06:49.098Z,207.13
2019-03-05T04:09:18.351Z,218.77
2019-03-05T04:11:47.077Z,194.67
2019-03-05T04:14:15.927Z,235.50
2019-03-05T04:16:44.918Z,228.37
2019-03-05T04:19:15.352Z,171.40
2019-03-05T04:21:44.089Z,168.47
2019-03-05T04:24:12.994Z,182.77
2019-03-05T04:26:41.759Z,165.70
2019-03-05T04:29:10.540Z,178.63
2019-03-05T04:31:39.305Z,291.07
2019-03-05T04:34:08.762Z,205.90
2019-03-05T04:36:37.560Z,155.27
2019-03-05T04:39:25.390Z,141.47
2019-03-05T04:41:54.265Z,174.90
2019-03-05T04:44:33.998Z,151.60
2019-03-05T04:47:04.003Z,151.50
2019-03-05T04:49:46.581Z,143.33
2019-03-05T04:52:17.923Z,164.33
2019-03-05T04:54:46.645Z,132.93
2019-03-05T04:57:15.431Z,135.03
2019-03-05T04:59:45.267Z,129.20
2019-03-05T05:02:14.010Z,128.23
2019-03-05T05:04:42.870Z,126.97
2019-03-05T05:07:11.681Z,120.33
2019-03-05T05:09:40.450Z,126.70
2019-03-05T05:12:09.332Z,125.13
2019-03-05T05:14:38.097Z,124.67
2019-03-05T05:17:06.958Z,119.23
2019-03-05T05:19:35.804Z,114.27
2019-03-05T05:22:04.579Z,116.93
2019-03-05T05:24:33.315Z,101.20
2019-03-05T05:27:02.090Z,107.73
2019-03-05T05:29:30.826Z,104.43
2019-03-05T05:31:59.559Z,99.90
2019-03-05T05:34:28.405Z,89.07
2019-03-05T05:36:57.779Z,86.30
2019-03-05T05:39:44.569Z,81.37
2019-03-05T05:42:13.626Z,85.10
2019-03-05T05:44:42.414Z,88.93
2019-03-05T05:47:11.422Z,84.67
2019-03-05T05:49:40.218Z,85.10
2019-03-05T05:52:09.038Z,83.50
2019-03-05T05:54:37.889Z,89.77
2019-03-05T05:57:06.602Z,89.47
2019-03-05T05:59:36.487Z,93.20
2019-03-05T06:02:05.528Z,89.50
2019-03-05T06:04:35.369Z,77.37
2019-03-05T06:07:04.123Z,84.97
2019-03-05T06:09:32.889Z,84.23
2019-03-05T06:12:01.667Z,83.87
2019-03-05T06:14:49.596Z,83.03
2019-03-05T06:17:18.401Z,78.47
2019-03-05T06:19:47.161Z,77.83
2019-03-05T06:22:16.117Z,79.80
2019-03-05T06:24:44.890Z,69.73
2019-03-05T06:27:15.807Z,67.00
2019-03-05T06:29:44.599Z,69.17
2019-03-05T06:32:13.519Z,73.13
2019-03-05T06:34:42.268Z,72.13
2019-03-05T06:37:12.853Z,83.60
2019-03-05T06:39:41.702Z,86.63
2019-03-05T06:42:10.513Z,96.30
2019-03-05T06:44:39.538Z,87.73
2019-03-05T06:47:08.512Z,95.73
2019-03-05T06:49:37.268Z,108.13
2019-03-05T06:52:07.167Z,115.73
2019-03-05T06:54:35.961Z,111.77
2019-03-05T06:57:04.775Z,119.53
2019-03-05T06:59:33.612Z,108.70
2019-03-05T07:02:02.416Z,125.73
2019-03-05T07:04:31.270Z,74.07
2019-03-05T07:07:00.433Z,106.63
2019-03-05T07:09:40.498Z,122.20
2019-03-05T07:12:15.250Z,101.87
2019-03-05T07:15:02.006Z,117.67
2019-03-05T07:17:37.316Z,120.30
2019-03-05T07:20:15.109Z,139.33
2019-03-05T07:22:54.095Z,137.03
2019-03-05T07:25:22.826Z,135.03
2019-03-05T07:27:53.305Z,140.77
2019-03-05T07:30:25.891Z,174.80
2019-03-05T07:32:55.036Z,201.63
2019-03-05T07:35:25.370Z,148.93
2019-03-05T07:37:54.327Z,161.67
2019-03-05T07:40:23.081Z,168.37
2019-03-05T07:42:51.887Z,160.77
2019-03-05T07:45:20.686Z,142.60
2019-03-05T07:47:49.454Z,157.03
2019-03-05T07:50:18.868Z,155.30
2019-03-05T07:52:48.348Z,163.87
2019-03-05T07:55:18.571Z,163.83
2019-03-05T07:57:48.018Z,122.93
2019-03-05T08:00:19.434Z,148.70
2019-03-05T08:02:48.829Z,141.50
2019-03-05T08:05:18.306Z,122.23
2019-03-05T08:07:47.713Z,129.77
2019-03-05T08:10:35.318Z,139.83
2019-03-05T08:13:27.648Z,128.00
2019-03-05T08:16:13.498Z,117.13
2019-03-05T08:18:42.353Z,111.57
2019-03-05T08:21:11.077Z,112.90
2019-03-05T08:23:39.872Z,97.70
2019-03-05T08:26:08.678Z,98.00
2019-03-05T08:28:37.524Z,87.03
2019-03-05T08:31:06.342Z,80.03
2019-03-05T08:33:35.155Z,67.33
2019-03-05T08:36:03.882Z,57.80
2019-03-05T08:38:32.989Z,57.27
2019-03-05T08:41:01.782Z,43.97
2019-03-05T08:43:30.890Z,43.77
2019-03-05T08:45:59.701Z,59.43
2019-03-05T08:48:28.521Z,44.33
2019-03-05T08:50:57.317Z,57.37
2019-03-05T08:53:26.026Z,57.67
2019-03-05T08:55:55.057Z,57.93
2019-03-05T08:58:23.799Z,51.03
2019-03-05T09:00:53.540Z,65.97
2019-03-05T09:03:22.392Z,63.50
2019-03-05T09:05:52.255Z,45.00
2019-03-05T09:08:21.098Z,61.53
2019-03-05T09:10:50.558Z,63.27
2019-03-05T09:13:19.400Z,64.00
2019-03-05T09:15:48.923Z,53.37
2019-03-05T09:18:18.465Z,57.87
2019-03-05T09:20:48.351Z,56.73
2019-03-05T09:23:17.834Z,56.03
2019-03-05T09:25:47.265Z,46.07
2019-03-05T09:28:17.763Z,60.00
2019-03-05T09:30:47.341Z,53.70
2019-03-05T09:33:19.212Z,53.10
2019-03-05T09:35:49.570Z,44.47
2019-03-05T09:38:19.150Z,47.27
2019-03-05T09:40:49.103Z,65.83
2019-03-05T09:43:18.513Z,56.83
2019-03-05T09:45:47.992Z,52.97
2019-03-05T09:48:19.323Z,28.77
2019-03-05T09:50:48.180Z,58.63
2019-03-05T09:53:17.622Z,61.30
2019-03-05T09:55:48.902Z,54.47
2019-03-05T09:58:20.402Z,54.07
2019-03-05T10:00:49.277Z,51.93
2019-03-05T10:03:18.542Z,50.73
2019-03-05T10:05:47.435Z,49.17
2019-03-05T10:08:16.331Z,50.47
2019-03-05T10:10:46.909Z,50.70
2019-03-05T10:13:15.655Z,55.60
2019-03-05T10:15:44.518Z,43.83
2019-03-05T10:18:13.423Z,49.83
2019-03-05T10:20:42.410Z,50.50
2019-03-05T10:23:11.199Z,54.10
2019-03-05T10:25:40.169Z,53.77
2019-03-05T10:28:09.100Z,56.17
2019-03-05T10:30:38.871Z,55.93
2019-03-05T10:33:26.712Z,55.70
2019-03-05T10:35:56.015Z,53.20
2019-03-05T10:38:24.788Z,82.00
2019-03-05T10:40:55.473Z,85.63
2019-03-05T10:43:24.243Z,95.37
2019-03-05T10:45:52.984Z,132.07
2019-03-05T10:48:21.885Z,155.80
2019-03-05T10:50:50.683Z,144.53
2019-03-05T10:53:19.445Z,112.20
2019-03-05T10:55:48.410Z,134.33
2019-03-05T10:58:18.001Z,150.77
2019-03-05T11:00:46.778Z,148.50
2019-03-05T11:03:15.551Z,155.10
2019-03-05T11:05:44.588Z,153.47
2019-03-05T11:08:16.785Z,155.67
2019-03-05T11:10:46.028Z,163.67
2019-03-05T11:13:14.762Z,176.27
2019-03-05T11:15:43.673Z,167.47
2019-03-05T11:18:12.742Z,133.60
2019-03-05T11:20:41.502Z,164.37
2019-03-05T11:23:11.680Z,166.93
2019-03-05T11:25:40.736Z,158.57
2019-03-05T11:28:09.485Z,170.37
2019-03-05T11:30:38.398Z,164.77
2019-03-05T11:33:07.490Z,157.30
2019-03-05T11:35:36.650Z,141.63
2019-03-05T11:38:05.484Z,146.87
2019-03-05T11:40:34.376Z,141.70
2019-03-05T11:43:07.090Z,131.03
2019-03-05T11:45:36.003Z,132.23
2019-03-05T11:48:04.969Z,133.20
2019-03-05T11:50:34.983Z,127.30
2019-03-05T11:53:03.791Z,133.53
2019-03-05T11:55:32.637Z,89.70
2019-03-05T11:58:01.436Z,129.03
2019-03-05T12:00:46.968Z,114.43
2019-03-05T12:03:16.930Z,116.20
2019-03-05T12:05:45.651Z,119.67
2019-03-05T12:08:14.577Z,116.87
2019-03-05T12:10:43.367Z,131.53
2019-03-05T12:13:14.374Z,131.60
2019-03-05T12:15:44.295Z,131.20
2019-03-05T12:18:13.092Z,118.67
2019-03-05T12:20:41.824Z,81.80
2019-03-05T12:23:11.678Z,136.70
2019-03-05T12:25:41.216Z,131.67
2019-03-05T12:28:11.185Z,139.63
2019-03-05T12:30:40.691Z,141.80
2019-03-05T12:33:09.671Z,129.47
2019-03-05T12:35:38.667Z,154.20
2019-03-05T12:38:07.568Z,164.53
2019-03-05T12:40:37.505Z,171.77
2019-03-05T12:43:06.873Z,156.47
2019-03-05T12:45:36.852Z,169.07
2019-03-05T12:48:05.691Z,178.30
2019-03-05T12:50:34.689Z,166.47
2019-03-05T12:53:03.607Z,166.60
2019-03-05T12:55:33.576Z,157.27
2019-03-05T12:58:02.475Z,142.87
2019-03-05T13:00:31.427Z,169.60
2019-03-05T13:03:00.242Z,150.03
2019-03-05T13:05:30.160Z,141.00
2019-03-05T13:07:59.333Z,164.20
2019-03-05T13:10:31.762Z,100.93
2019-03-05T13:12:58.507Z,99.50
2019-03-05T13:15:28.898Z,133.50
2019-03-05T13:17:57.783Z,148.07
2019-03-05T13:20:45.646Z,127.93
2019-03-05T13:23:14.517Z,119.47
2019-03-05T13:25:43.250Z,133.03
2019-03-05T13:28:12.407Z,109.73
2019-03-05T13:30:41.322Z,121.70
2019-03-05T13:33:10.252Z,106.13
2019-03-05T13:35:39.213Z,97.40
2019-03-05T13:38:09.500Z,94.50
2019-03-05T13:40:40.467Z,87.87
2019-03-05T13:43:09.321Z,94.07
2019-03-05T13:45:43.788Z,89.77
2019-03-05T13:48:32.077Z,71.70
2019-03-05T13:51:09.899Z,99.93
2019-03-05T13:54:01.536Z,103.13
2019-03-05T13:56:49.738Z,111.73
2019-03-05T13:59:36.376Z,88.23
2019-03-05T14:02:06.675Z,135.17
2019-03-05T14:04:47.142Z,116.70
2019-03-05T14:07:41.038Z,124.47
2019-03-05T14:10:09.805Z,116.10
2019-03-05T14:12:38.665Z,125.93
2019-03-05T14:15:07.726Z,137.00
2019-03-05T14:17:39.928Z,129.30
2019-03-05T14:20:10.563Z,130.00
2019-03-05T14:22:39.414Z,136.10
2019-03-05T14:25:08.977Z,146.90
2019-03-05T14:27:37.761Z,149.50
2019-03-05T14:30:07.497Z,145.50
2019-03-05T14:32:36.347Z,134.83
2019-03-05T14:35:15.449Z,151.97
2019-03-05T14:37:44.749Z,145.73
2019-03-05T14:40:32.649Z,153.23
2019-03-05T14:43:01.831Z,155.57
2019-03-05T14:45:31.779Z,142.07
2019-03-05T14:48:04.175Z,164.17
2019-03-05T14:50:31.819Z,168.30
2019-03-05T14:53:00.605Z,177.93
2019-03-05T14:55:29.484Z,170.43
2019-03-05T14:57:58.247Z,162.67
2019-03-05T15:00:27.608Z,162.97
2019-03-05T15:02:56.400Z,156.37
2019-03-05T15:05:26.249Z,163.60
2019-03-05T15:07:55.183Z,167.00
2019-03-05T15:10:24.120Z,166.23
2019-03-05T15:12:53.976Z,188.30
2019-03-05T15:15:24.104Z,194.00
2019-03-05T15:17:53.995Z,171.63
2019-03-05T15:20:22.893Z,197.30
2019-03-05T15:22:51.916Z,208.40
2019-03-05T15:25:20.871Z,227.80
2019-03-05T15:27:49.765Z,190.67
2019-03-05T15:30:19.288Z,179.00
2019-03-05T15:32:48.096Z,182.43
2019-03-05T15:35:18.864Z,217.13
2019-03-05T15:37:47.753Z,231.03
2019-03-05T15:40:17.749Z,273.87
2019-03-05T15:42:46.782Z,203.57
2019-03-05T15:45:16.179Z,203.37
2019-03-05T15:47:44.966Z,203.37
2019-03-05T15:50:15.266Z,229.57
2019-03-05T15:52:44.069Z,207.57
2019-03-05T15:55:13.078Z,197.77
2019-03-05T15:57:42.024Z,241.50
2019-03-05T16:00:12.637Z,193.67
2019-03-05T16:02:41.378Z,244.03
2019-03-05T16:05:12.180Z,185.93
2019-03-05T16:07:43.937Z,236.90
2019-03-05T16:10:13.296Z,248.47
2019-03-05T16:12:42.788Z,223.83
2019-03-05T16:15:12.332Z,251.90
2019-03-05T16:17:41.169Z,244.50
2019-03-05T16:20:10.775Z,223.57
2019-03-05T16:22:39.930Z,235.87
2019-03-05T16:25:09.901Z,249.30
2019-03-05T16:27:40.961Z,263.70
2019-03-05T16:30:34.386Z,227.10
2019-03-05T16:33:19.273Z,274.33
2019-03-05T16:36:13.167Z,289.43
2019-03-05T16:39:10.578Z,205.43
2019-03-05T16:42:07.710Z,206.83
2019-03-05T16:45:13.463Z,339.27
2019-03-05T16:47:53.965Z,234.33
2019-03-05T16:50:44.656Z,271.50
2019-03-05T16:53:48.215Z,232.93
2019-03-05T16:56:35.961Z,206.00
2019-03-05T16:59:17.241Z,353.17
2019-03-05T17:01:57.511Z,299.47
2019-03-05T17:04:33.297Z,235.73
2019-03-05T17:07:19.686Z,204.37
2019-03-05T17:09:57.289Z,214.23
2019-03-05T17:12:26.087Z,229.43
2019-03-05T17:14:54.817Z,214.43
2019-03-05T17:17:24.864Z,205.10
2019-03-05T17:19:54.308Z,190.33
2019-03-05T17:22:23.833Z,163.47
2019-03-05T17:24:53.314Z,203.53
2019-03-05T17:27:22.897Z,187.10
2019-03-05T17:29:51.977Z,194.93
2019-03-05T17:32:20.839Z,194.97
2019-03-05T17:34:49.728Z,309.03
2019-03-05T17:37:18.524Z,171.33
2019-03-05T17:39:47.291Z,173.90
2019-03-05T17:42:16.366Z,195.83
2019-03-05T17:44:45.189Z,231.20
2019-03-05T17:47:14.734Z,199.07
2019-03-05T17:49:44.212Z,227.47
2019-03-05T17:52:13.691Z,181.13
2019-03-05T17:54:43.206Z,146.67
2019-03-05T17:57:12.067Z,214.17
2019-03-05T17:59:40.968Z,220.90
2019-03-05T18:02:10.411Z,204.93
2019-03-05T18:04:39.317Z,195.37
2019-03-05T18:07:08.207Z,129.17
2019-03-05T18:09:37.314Z,155.97
2019-03-05T18:12:06.502Z,175.97
2019-03-05T18:14:35.791Z,192.53
2019-03-05T18:17:04.757Z,210.40
2019-03-05T18:19:33.804Z,204.33
2019-03-05T18:22:02.894Z,295.27
2019-03-05T18:24:31.913Z,157.93
2019-03-05T18:27:00.933Z,184.07
2019-03-05T18:29:29.926Z,168.17
2019-03-05T18:31:59.029Z,160.40
2019-03-05T18:34:28.346Z,171.73
2019-03-05T18:36:57.509Z,194.83
2019-03-05T18:39:28.969Z,181.17
2019-03-05T18:41:58.537Z,194.43
2019-03-05T18:44:27.855Z,168.17
2019-03-05T18:46:57.088Z,190.30
2019-03-05T18:49:26.377Z,244.63
2019-03-05T18:51:55.487Z,183.83
2019-03-05T18:54:24.692Z,157.93
2019-03-05T18:56:54.767Z,183.27
2019-03-05T18:59:23.969Z,272.47
2019-03-05T19:01:53.342Z,188.33
2019-03-05T19:04:22.645Z,150.90
2019-03-05T19:06:51.719Z,207.73
2019-03-05T19:09:21.780Z,189.80
2019-03-05T19:11:51.048Z,186.07
2019-03-05T19:14:20.072Z,183.23
2019-03-05T19:16:49.391Z,186.50
2019-03-05T19:19:18.622Z,176.67
2019-03-05T19:21:47.863Z,179.13
2019-03-05T19:24:17.232Z,188.47
2019-03-05T19:27:05.378Z,190.37
2019-03-05T19:29:34.577Z,197.40
2019-03-05T19:32:03.987Z,183.60
2019-03-05T19:34:33.365Z,188.97
2019-03-05T19:37:02.508Z,190.23
2019-03-05T19:39:31.737Z,215.83
2019-03-05T19:42:01.032Z,185.73
2019-03-05T19:44:30.499Z,187.50
2019-03-05T19:46:59.719Z,218.60
2019-03-05T19:49:29.005Z,230.93
2019-03-05T19:51:58.399Z,235.30
2019-03-05T19:54:27.617Z,180.33
2019-03-05T19:56:57.022Z,177.43
2019-03-05T19:59:26.787Z,194.83
2019-03-05T20:01:56.222Z,213.20
2019-03-05T20:04:25.917Z,237.33
2019-03-05T20:06:58.753Z,239.63
2019-03-05T20:09:31.055Z,208.70
2019-03-05T20:12:03.599Z,206.77
2019-03-05T20:14:32.969Z,184.17
2019-03-05T20:17:02.310Z,188.93
2019-03-05T20:19:31.664Z,190.83
2019-03-05T20:22:00.930Z,212.70
2019-03-05T20:24:30.309Z,195.97
2019-03-05T20:26:59.755Z,198.47
2019-03-05T20:29:29.229Z,200.03
2019-03-05T20:31:58.526Z,218.50
2019-03-05T20:34:27.838Z,212.20
2019-03-05T20:36:57.334Z,186.93
2019-03-05T20:39:26.636Z,186.80
2019-03-05T20:41:55.765Z,200.23
2019-03-05T20:44:25.073Z,215.77
2019-03-05T20:46:55.971Z,219.80
2019-03-05T20:49:25.787Z,205.93
2019-03-05T20:52:13.927Z,203.40
2019-03-05T20:54:43.019Z,209.47
2019-03-05T20:57:11.960Z,213.77
2019-03-05T20:59:41.509Z,213.07
2019-03-05T21:02:10.915Z,210.70
2019-03-05T21:04:40.363Z,211.70
2019-03-05T21:07:09.736Z,203.70
2019-03-05T21:09:39.239Z,204.60
2019-03-05T21:12:08.380Z,197.00
2019-03-05T21:14:37.501Z,191.03
2019-03-05T21:17:06.569Z,236.80
2019-03-05T21:19:35.681Z,251.83
2019-03-05T21:22:04.587Z,200.07
2019-03-05T21:24:33.468Z,226.27
2019-03-05T21:27:02.539Z,338.33
2019-03-05T21:29:31.352Z,238.60
2019-03-05T21:32:00.664Z,230.57
2019-03-05T21:34:29.720Z,255.03
2019-03-05T21:36:58.524Z,258.03
2019-03-05T21:39:27.304Z,329.37
2019-03-05T21:41:56.131Z,262.67
2019-03-05T21:44:24.998Z,287.27
2019-03-05T21:46:54.147Z,260.87
2019-03-05T21:49:23.350Z,308.57
2019-03-05T21:51:52.669Z,205.83
2019-03-05T21:54:21.532Z,272.93
2019-03-05T21:56:50.373Z,392.13
2019-03-05T21:59:19.534Z,221.27
2019-03-05T22:02:13.105Z,322.53
2019-03-05T22:04:41.827Z,339.73
2019-03-05T22:07:10.958Z,293.90
2019-03-05T22:09:40.133Z,190.30
2019-03-05T22:12:08.922Z,281.50
2019-03-05T22:14:37.656Z,158.80
2019-03-05T22:17:06.400Z,258.30
2019-03-05T22:19:35.334Z,289.20
2019-03-05T22:22:04.256Z,252.57
2019-03-05T22:24:33.096Z,282.23
2019-03-05T22:27:01.931Z,386.77
2019-03-05T22:29:30.628Z,329.50
2019-03-05T22:31:59.856Z,303.57
2019-03-05T22:34:28.579Z,269.20
2019-03-05T22:36:57.469Z,292.77
2019-03-05T22:39:26.512Z,294.27
2019-03-05T22:41:55.304Z,283.20
2019-03-05T22:44:24.234Z,354.10
2019-03-05T22:46:53.034Z,300.53
2019-03-05T22:49:21.835Z,367.60
2019-03-05T22:51:50.639Z,329.13
2019-03-05T22:54:19.737Z,296.80
2019-03-05T22:56:48.752Z,337.23
2019-03-05T22:59:17.492Z,356.73
2019-03-05T23:01:46.284Z,373.47
2019-03-05T23:04:17.157Z,335.00
2019-03-05T23:06:45.981Z,349.63
2019-03-05T23:09:24.724Z,314.67
2019-03-05T23:11:53.617Z,401.83
2019-03-05T23:14:22.452Z,308.33
2019-03-05T23:16:51.348Z,363.33
2019-03-05T23:19:20.402Z,301.27
2019-03-05T23:21:49.361Z,297.20
2019-03-05T23:24:18.276Z,328.37
2019-03-05T23:26:47.097Z,292.67
2019-03-05T23:29:16.279Z,324.50
2019-03-05T23:31:45.488Z,325.10
2019-03-05T23:34:18.316Z,392.13
2019-03-05T23:36:44.818Z,317.57
2019-03-05T23:39:16.782Z,335.57
2019-03-05T23:41:45.630Z,437.73
2019-03-05T23:44:14.588Z,336.90
2019-03-05T23:46:43.455Z,526.67
2019-03-05T23:49:12.417Z,349.70
2019-03-05T23:51:41.271Z,420.97
2019-03-05T23:54:10.466Z,341.33
2019-03-05T23:56:39.430Z,350.47
2019-03-05T23:59:08.274Z,413.67
